createdAt,value
2019-01-05T00:01:17.050Z,30.73
2019-01-05T00:03:48.656Z,30.10
2019-01-05T00:06:28.381Z,28.67
2019-01-05T00:08:57.532Z,31.27
2019-01-05T00:11:40.154Z,30.90
2019-01-05T00:14:27.470Z,29.70
2019-01-05T00:16:59.286Z,30.43
2019-01-05T00:19:44.857Z,30.77
2019-01-05T00:22:13.867Z,29.70
2019-01-05T00:24:42.946Z,30.80
2019-01-05T00:27:12.021Z,30.43
2019-01-05T00:29:57.574Z,29.60
2019-01-05T00:32:39.146Z,30.20
2019-01-05T00:35:25.936Z,32.40
2019-01-05T00:37:58.465Z,32.27
2019-01-05T00:40:36.664Z,30.40
2019-01-05T00:43:08.685Z,31.90
2019-01-05T00:45:37.742Z,32.77
2019-01-05T00:48:24.900Z,30.80
2019-01-05T00:50:53.888Z,29.73
2019-01-05T00:53:41.178Z,30.17
2019-01-05T00:56:26.790Z,28.97
2019-01-05T00:59:05.104Z,28.50
2019-01-05T01:01:34.198Z,29.83
2019-01-05T01:04:06.040Z,29.30
2019-01-05T01:06:47.550Z,27.87
2019-01-05T01:09:22.437Z,29.77
2019-01-05T01:11:52.698Z,25.73
2019-01-05T01:14:36.810Z,25.40
2019-01-05T01:17:11.623Z,26.73
2019-01-05T01:19:51.323Z,26.77
2019-01-05T01:22:20.439Z,26.33
2019-01-05T01:25:07.151Z,26.70
2019-01-05T01:27:37.877Z,23.83
2019-01-05T01:30:24.193Z,24.50
2019-01-05T01:33:08.490Z,24.53
2019-01-05T01:35:53.807Z,24.23
2019-01-05T01:38:27.134Z,24.00
2019-01-05T01:41:08.003Z,23.30
2019-01-05T01:43:54.400Z,21.73
2019-01-05T01:46:35.710Z,22.13
2019-01-05T01:49:19.911Z,24.37
2019-01-05T01:52:05.355Z,22.43
2019-01-05T01:54:36.048Z,22.37
2019-01-05T01:57:17.082Z,21.83
2019-01-05T02:00:04.098Z,21.83
2019-01-05T02:02:38.421Z,22.90
2019-01-05T02:05:20.729Z,23.33
2019-01-05T02:07:55.880Z,22.77
2019-01-05T02:10:27.616Z,22.97
2019-01-05T02:13:05.265Z,20.43
2019-01-05T02:15:43.509Z,20.80
2019-01-05T02:18:25.925Z,20.07
2019-01-05T02:21:05.577Z,20.90
2019-01-05T02:23:52.498Z,21.20
2019-01-05T02:26:28.862Z,21.03
2019-01-05T02:29:31.582Z,22.20
2019-01-05T02:32:08.027Z,20.87
2019-01-05T02:34:47.526Z,21.60
2019-01-05T02:37:36.316Z,21.83
2019-01-05T02:40:10.223Z,20.87
2019-01-05T02:42:46.976Z,21.10
2019-01-05T02:45:20.333Z,21.27
2019-01-05T02:48:03.588Z,21.33
2019-01-05T02:50:43.013Z,21.17
2019-01-05T02:53:48.687Z,20.27
2019-01-05T02:56:25.870Z,19.63
2019-01-05T02:59:05.423Z,20.63
2019-01-05T03:01:41.882Z,19.60
2019-01-05T03:04:37.863Z,18.87
2019-01-05T03:07:11.307Z,19.77
2019-01-05T03:10:11.026Z,20.40
2019-01-05T03:13:12.271Z,19.70
2019-01-05T03:15:58.757Z,20.83
2019-01-05T03:18:39.442Z,19.53
2019-01-05T03:21:31.117Z,20.33
2019-01-05T03:24:35.011Z,21.73
2019-01-05T03:27:08.886Z,20.67
2019-01-05T03:29:59.173Z,19.83
2019-01-05T03:32:44.661Z,20.33
2019-01-05T03:35:20.919Z,20.40
2019-01-05T03:38:09.204Z,19.30
2019-01-05T03:41:00.267Z,19.50
2019-01-05T03:43:43.005Z,19.03
2019-01-05T03:46:29.769Z,19.17
2019-01-05T03:52:15.909Z,20.97
2019-01-05T03:55:19.687Z,21.33
2019-01-05T03:58:24.499Z,19.97
2019-01-05T04:01:15.676Z,21.30
2019-01-05T04:04:02.758Z,19.70
2019-01-05T04:06:34.649Z,19.80
2019-01-05T04:09:17.188Z,19.77
2019-01-05T04:12:06.190Z,20.97
2019-01-05T04:15:00.715Z,19.07
2019-01-05T04:18:04.355Z,19.77
2019-01-05T04:20:53.873Z,17.70
2019-01-05T04:23:39.514Z,18.37
2019-01-05T04:26:33.587Z,19.30
2019-01-05T04:29:37.596Z,17.63
2019-01-05T04:35:20.465Z,17.37
2019-01-05T04:38:11.737Z,16.73
2019-01-05T04:43:58.685Z,17.33
2019-01-05T04:46:48.490Z,16.83
2019-01-05T04:49:21.687Z,18.57
2019-01-05T04:52:23.115Z,16.77
2019-01-05T04:55:05.266Z,17.90
2019-01-05T04:57:50.273Z,17.33
2019-01-05T05:00:32.521Z,18.43
2019-01-05T05:03:17.919Z,17.10
2019-01-05T05:06:15.715Z,16.90
2019-01-05T05:08:55.616Z,16.47
2019-01-05T05:11:44.288Z,16.93
2019-01-05T05:14:42.223Z,16.83
2019-01-05T05:17:48.924Z,16.97
2019-01-05T05:20:38.926Z,17.73
2019-01-05T05:23:29.315Z,18.10
2019-01-05T05:26:14.959Z,18.83
2019-01-05T05:29:15.719Z,20.13
2019-01-05T05:31:52.457Z,19.53
2019-01-05T05:34:35.067Z,19.70
2019-01-05T05:37:29.039Z,20.93
2019-01-05T05:40:20.704Z,21.37
2019-01-05T05:42:57.008Z,21.07
2019-01-05T05:45:37.443Z,18.20
2019-01-05T05:48:38.154Z,17.40
2019-01-05T05:51:20.534Z,18.20
2019-01-05T05:53:54.097Z,16.90
2019-01-05T05:56:24.726Z,17.87
2019-01-05T05:59:07.398Z,16.97
2019-01-05T06:01:49.643Z,16.80
2019-01-05T06:04:25.914Z,16.97
2019-01-05T06:07:28.090Z,16.77
2019-01-05T06:09:58.734Z,16.33
2019-01-05T06:12:45.019Z,18.07
2019-01-05T06:15:21.301Z,19.33
2019-01-05T06:18:26.950Z,16.63
2019-01-05T06:21:20.024Z,19.37
2019-01-05T06:24:17.290Z,20.80
2019-01-05T06:27:07.328Z,19.63
2019-01-05T06:29:43.508Z,19.50
2019-01-05T06:32:37.824Z,19.63
2019-01-05T06:35:25.137Z,19.13
2019-01-05T06:38:10.682Z,18.30
2019-01-05T06:40:50.333Z,18.47
2019-01-05T06:43:47.709Z,18.13
2019-01-05T06:46:37.477Z,19.43
2019-01-05T06:49:43.378Z,19.07
2019-01-05T06:52:50.557Z,17.80
2019-01-05T06:55:26.572Z,18.50
2019-01-05T06:58:15.289Z,18.10
2019-01-05T07:01:19.335Z,18.17
2019-01-05T07:04:01.758Z,18.87
2019-01-05T07:06:44.202Z,20.20
2019-01-05T07:09:48.238Z,17.37
2019-01-05T07:12:30.878Z,17.80
2019-01-05T07:15:20.778Z,19.97
2019-01-05T07:18:06.474Z,17.73
2019-01-05T07:20:59.310Z,16.40
2019-01-05T07:23:53.483Z,17.23
2019-01-05T07:26:53.186Z,18.60
2019-01-05T07:29:40.639Z,18.53
2019-01-05T07:32:44.330Z,17.20
2019-01-05T07:35:40.782Z,19.73
2019-01-05T07:38:23.382Z,19.30
2019-01-05T07:41:09.024Z,20.83
2019-01-05T07:44:04.354Z,18.37
2019-01-05T07:46:50.203Z,20.53
2019-01-05T07:49:45.060Z,20.17
2019-01-05T07:52:31.305Z,20.17
2019-01-05T07:55:12.865Z,18.93
2019-01-05T07:57:54.704Z,20.37
2019-01-05T08:00:31.066Z,20.93
2019-01-05T08:03:25.224Z,23.23
2019-01-05T08:06:12.287Z,23.37
2019-01-05T08:08:46.080Z,24.83
2019-01-05T08:11:22.471Z,24.73
2019-01-05T08:13:58.767Z,24.07
2019-01-05T08:16:35.436Z,24.27
2019-01-05T08:19:25.364Z,23.27
2019-01-05T08:22:16.747Z,22.53
2019-01-05T08:24:50.522Z,24.30
2019-01-05T08:27:53.998Z,23.67
2019-01-05T08:30:36.084Z,21.53
2019-01-05T08:33:22.967Z,24.30
2019-01-05T08:35:59.493Z,24.23
2019-01-05T08:38:46.219Z,25.47
2019-01-05T08:41:36.541Z,25.43
2019-01-05T08:44:25.061Z,26.90
2019-01-05T08:47:01.631Z,29.57
2019-01-05T08:49:35.144Z,30.90
2019-01-05T08:52:15.077Z,33.27
2019-01-05T08:54:51.357Z,30.40
2019-01-05T08:57:40.392Z,33.90
2019-01-05T09:00:11.109Z,31.60
2019-01-05T09:02:56.899Z,32.50
2019-01-05T09:05:33.290Z,32.30
2019-01-05T09:08:12.149Z,33.27
2019-01-05T09:11:02.343Z,35.43
2019-01-05T09:13:53.624Z,35.23
2019-01-05T09:16:40.814Z,34.23
2019-01-05T09:19:28.061Z,32.37
2019-01-05T09:22:27.186Z,30.33
2019-01-05T09:25:17.744Z,31.43
2019-01-05T09:28:00.566Z,30.20
2019-01-05T09:30:33.893Z,28.23
2019-01-05T09:33:20.986Z,26.60
2019-01-05T09:36:20.277Z,25.90
2019-01-05T09:39:02.889Z,24.40
2019-01-05T09:41:42.273Z,26.23
2019-01-05T09:44:42.495Z,25.07
2019-01-05T09:47:18.737Z,29.67
2019-01-05T09:49:57.533Z,31.63
2019-01-05T09:52:44.664Z,29.67
2019-01-05T09:55:32.504Z,29.07
2019-01-05T09:58:26.779Z,29.17
2019-01-05T10:01:14.209Z,30.53
2019-01-05T10:04:00.089Z,32.70
2019-01-05T10:06:52.844Z,32.57
2019-01-05T10:09:31.991Z,35.33
2019-01-05T10:12:22.250Z,35.90
2019-01-05T10:15:17.168Z,37.43
2019-01-05T10:17:56.071Z,37.70
2019-01-05T10:20:35.304Z,39.67
2019-01-05T10:23:34.419Z,39.20
2019-01-05T10:26:29.988Z,39.70
2019-01-05T10:29:17.257Z,39.73
2019-01-05T10:31:59.871Z,36.87
2019-01-05T10:34:49.509Z,37.97
2019-01-05T10:37:34.928Z,36.33
2019-01-05T10:40:27.863Z,35.93
2019-01-05T10:43:16.382Z,35.07
2019-01-05T10:45:49.824Z,35.17
2019-01-05T10:48:29.555Z,36.23
2019-01-05T10:51:11.879Z,33.87
2019-01-05T10:54:02.599Z,35.40
2019-01-05T10:57:09.752Z,34.67
2019-01-05T11:00:13.203Z,32.53
2019-01-05T11:03:06.249Z,32.30
2019-01-05T11:06:04.807Z,35.77
2019-01-05T11:08:44.097Z,30.93
2019-01-05T11:11:17.348Z,31.53
2019-01-05T11:14:11.854Z,30.27
2019-01-05T11:17:17.288Z,32.37
2019-01-05T11:20:04.735Z,37.93
2019-01-05T11:22:47.216Z,32.57
2019-01-05T11:25:29.497Z,37.37
2019-01-05T11:28:16.462Z,33.03
2019-01-05T11:31:17.712Z,36.83
2019-01-05T11:34:13.070Z,43.43
2019-01-05T11:37:16.268Z,44.20
2019-01-05T11:39:52.847Z,44.97
2019-01-05T11:42:38.524Z,46.13
2019-01-05T11:45:20.869Z,40.93
2019-01-05T11:48:05.586Z,36.60
2019-01-05T11:50:38.974Z,32.23
2019-01-05T11:53:29.317Z,34.77
2019-01-05T11:56:33.261Z,41.90
2019-01-05T11:59:15.846Z,44.13
2019-01-05T12:01:58.440Z,49.30
2019-01-05T12:04:53.440Z,41.17
2019-01-05T12:07:36.018Z,37.00
2019-01-05T12:10:25.561Z,40.00
2019-01-05T12:13:23.729Z,38.77
2019-01-05T12:16:14.890Z,32.07
2019-01-05T12:19:00.629Z,32.90
2019-01-05T12:21:52.665Z,25.27
2019-01-05T12:24:29.194Z,22.93
2019-01-05T12:27:08.963Z,23.00
2019-01-05T12:30:02.093Z,27.90
2019-01-05T12:33:05.942Z,21.07
2019-01-05T12:35:59.186Z,27.53
2019-01-05T12:38:38.567Z,24.40
2019-01-05T12:41:27.341Z,22.57
2019-01-05T12:44:13.071Z,26.70
2019-01-05T12:46:58.604Z,27.20
2019-01-05T12:49:53.342Z,23.37
2019-01-05T12:52:30.153Z,22.37
2019-01-05T12:55:42.842Z,24.93
2019-01-05T12:58:39.299Z,24.97
2019-01-05T13:01:32.259Z,24.60
2019-01-05T13:04:20.914Z,23.47
2019-01-05T13:07:12.508Z,27.03
2019-01-05T13:09:57.944Z,27.87
2019-01-05T13:12:51.103Z,24.90
2019-01-05T13:15:24.339Z,25.20
2019-01-05T13:18:15.840Z,16.80
2019-01-05T13:24:09.861Z,24.83
2019-01-05T13:27:05.404Z,22.43
2019-01-05T13:29:56.426Z,21.73
2019-01-05T13:32:52.574Z,20.73
2019-01-05T13:35:23.280Z,20.07
2019-01-05T13:38:08.717Z,18.10
2019-01-05T13:40:48.047Z,17.90
2019-01-05T13:43:23.077Z,22.77
2019-01-05T13:46:17.260Z,20.73
2019-01-05T13:49:11.964Z,18.60
2019-01-05T13:54:54.466Z,24.17
2019-01-05T13:57:26.444Z,25.00
2019-01-05T13:59:55.594Z,22.07
2019-01-05T14:02:42.098Z,22.37
2019-01-05T14:05:20.306Z,22.23
2019-01-05T14:07:57.986Z,19.77
2019-01-05T14:10:27.086Z,23.20
2019-01-05T14:13:13.767Z,24.27
2019-01-05T14:15:42.898Z,23.43
2019-01-05T14:18:25.428Z,15.83
2019-01-05T14:21:00.363Z,21.10
2019-01-05T14:23:35.195Z,19.33
2019-01-05T14:26:04.299Z,13.97
2019-01-05T14:28:48.193Z,18.33
2019-01-05T14:31:17.334Z,25.80
2019-01-05T14:33:46.333Z,28.90
2019-01-05T14:36:18.289Z,26.07
2019-01-05T14:39:04.037Z,21.33
2019-01-05T14:41:46.130Z,24.10
2019-01-05T14:44:15.129Z,33.53
2019-01-05T14:46:45.357Z,29.30
2019-01-05T14:49:30.385Z,34.17
2019-01-05T14:52:02.191Z,28.90
2019-01-05T14:54:47.233Z,26.43
2019-01-05T14:57:16.305Z,27.53
2019-01-05T14:59:45.481Z,32.03
2019-01-05T15:02:26.210Z,43.43
2019-01-05T15:05:11.489Z,16.63
2019-01-05T15:07:40.689Z,19.27
2019-01-05T15:10:09.785Z,19.03
2019-01-05T15:12:38.815Z,22.23
2019-01-05T15:15:24.456Z,19.33
2019-01-05T15:18:09.861Z,20.87
2019-01-05T15:20:57.089Z,58.63
2019-01-05T15:23:28.715Z,38.23
2019-01-05T15:26:14.076Z,29.57
2019-01-05T15:28:49.333Z,25.40
2019-01-05T15:31:27.554Z,25.70
2019-01-05T15:34:14.736Z,22.63
2019-01-05T15:36:43.791Z,25.67
2019-01-05T15:39:29.026Z,27.37
2019-01-05T15:42:13.160Z,25.30
2019-01-05T15:45:00.375Z,28.57
2019-01-05T15:47:35.461Z,30.70
2019-01-05T15:50:10.842Z,25.50
2019-01-05T15:52:42.882Z,30.47
2019-01-05T15:55:14.634Z,32.43
2019-01-05T15:58:00.681Z,29.03
2019-01-05T16:00:34.771Z,54.37
2019-01-05T16:03:21.481Z,42.90
2019-01-05T16:05:57.513Z,41.97
2019-01-05T16:08:38.694Z,47.73
2019-01-05T16:11:24.080Z,43.70
2019-01-05T16:14:04.721Z,33.43
2019-01-05T16:16:49.985Z,34.97
2019-01-05T16:19:30.604Z,34.27
2019-01-05T16:22:15.987Z,30.03
2019-01-05T16:24:45.220Z,34.57
2019-01-05T16:27:20.114Z,29.03
2019-01-05T16:30:01.169Z,24.97
2019-01-05T16:32:36.142Z,28.17
2019-01-05T16:35:11.557Z,30.93
2019-01-05T16:37:58.458Z,31.03
2019-01-05T16:40:27.561Z,27.07
2019-01-05T16:43:08.700Z,28.90
2019-01-05T16:45:43.816Z,34.80
2019-01-05T16:48:31.393Z,30.10
2019-01-05T16:51:06.401Z,33.50
2019-01-05T16:53:44.506Z,41.80
2019-01-05T16:59:06.254Z,42.27
2019-01-05T17:01:52.044Z,38.50
2019-01-05T17:04:21.010Z,39.43
2019-01-05T17:07:08.187Z,30.83
2019-01-05T17:09:43.224Z,32.73
2019-01-05T17:12:15.358Z,33.83
2019-01-05T17:14:50.622Z,35.90
2019-01-05T17:17:22.336Z,41.27
2019-01-05T17:20:00.330Z,36.87
2019-01-05T17:22:33.580Z,33.13
2019-01-05T17:25:19.159Z,34.03
2019-01-05T17:27:54.190Z,29.37
2019-01-05T17:30:23.209Z,27.67
2019-01-05T17:33:01.162Z,32.40
2019-01-05T17:35:32.710Z,31.00
2019-01-05T17:38:10.357Z,33.37
2019-01-05T17:40:41.371Z,33.37
2019-01-05T17:43:12.575Z,36.93
2019-01-05T17:45:58.362Z,38.00
2019-01-05T17:48:33.617Z,39.33
2019-01-05T17:51:11.576Z,40.33
2019-01-05T17:53:56.851Z,40.30
2019-01-05T17:56:32.252Z,34.83
2019-01-05T17:59:01.319Z,39.47
2019-01-05T18:01:42.460Z,37.50
2019-01-05T18:04:17.542Z,34.60
2019-01-05T18:06:55.640Z,33.70
2019-01-05T18:09:27.807Z,35.23
2019-01-05T18:12:13.096Z,31.77
2019-01-05T18:14:42.092Z,32.27
2019-01-05T18:17:13.921Z,34.93
2019-01-05T18:19:55.439Z,35.10
2019-01-05T18:22:33.452Z,39.43
2019-01-05T18:27:53.557Z,28.23
2019-01-05T18:30:25.751Z,31.83
2019-01-05T18:33:06.356Z,35.43
2019-01-05T18:35:50.563Z,40.50
2019-01-05T18:38:31.681Z,33.23
2019-01-05T18:41:17.622Z,32.73
2019-01-05T18:43:52.801Z,26.87
2019-01-05T18:46:22.844Z,31.07
2019-01-05T18:48:53.636Z,34.93
2019-01-05T18:51:39.321Z,27.27
2019-01-05T18:54:14.207Z,17.67
2019-01-05T18:56:59.722Z,22.03
2019-01-05T18:59:28.762Z,24.70
2019-01-05T19:02:04.160Z,14.63
2019-01-05T19:04:42.293Z,14.23
2019-01-05T19:07:11.504Z,12.30
2019-01-05T19:09:49.486Z,12.40
2019-01-05T19:12:35.812Z,10.77
2019-01-05T19:15:04.862Z,10.80
2019-01-05T19:17:33.991Z,13.20
2019-01-05T19:20:19.589Z,10.40
2019-01-05T19:22:50.016Z,8.53
2019-01-05T19:25:19.101Z,10.77
2019-01-05T19:27:50.815Z,26.23
2019-01-05T19:30:35.916Z,10.40
2019-01-05T19:33:10.554Z,12.20
2019-01-05T19:35:55.836Z,10.50
2019-01-05T19:38:33.890Z,8.77
2019-01-05T19:41:02.950Z,11.20
2019-01-05T19:43:48.662Z,10.87
2019-01-05T19:46:17.858Z,12.30
2019-01-05T19:48:59.777Z,14.90
2019-01-05T19:51:31.568Z,10.67
2019-01-05T19:54:00.815Z,14.87
2019-01-05T19:56:41.594Z,16.77
2019-01-05T19:59:10.632Z,12.77
2019-01-05T20:01:48.668Z,11.80
2019-01-05T20:04:23.865Z,15.17
2019-01-05T20:06:55.890Z,19.17
2019-01-05T20:09:42.729Z,22.80
2019-01-05T20:12:14.819Z,20.50
2019-01-05T20:14:56.087Z,23.40
2019-01-05T20:17:41.551Z,24.97
2019-01-05T20:20:36.332Z,21.20
2019-01-05T20:23:15.788Z,25.83
2019-01-05T20:25:47.752Z,21.60
2019-01-05T20:28:33.448Z,18.00
2019-01-05T20:31:11.478Z,20.53
2019-01-05T20:33:40.585Z,20.03
2019-01-05T20:36:09.633Z,20.23
2019-01-05T20:38:38.728Z,19.47
2019-01-05T20:41:19.892Z,20.70
2019-01-05T20:44:05.214Z,22.10
2019-01-05T20:46:50.814Z,25.17
2019-01-05T20:49:24.161Z,24.20
2019-01-05T20:52:09.745Z,22.27
2019-01-05T20:54:38.849Z,25.00
2019-01-05T20:57:07.867Z,24.73
2019-01-05T20:59:52.256Z,23.40
2019-01-05T21:02:21.314Z,22.57
2019-01-05T21:04:56.149Z,21.57
2019-01-05T21:07:31.191Z,20.47
2019-01-05T21:10:15.237Z,21.13
2019-01-05T21:12:53.248Z,19.20
2019-01-05T21:15:22.357Z,18.77
2019-01-05T21:18:03.279Z,17.27
2019-01-05T21:20:35.958Z,20.20
2019-01-05T21:23:10.772Z,19.50
2019-01-05T21:25:45.807Z,17.37
2019-01-05T21:28:30.866Z,14.57
2019-01-05T21:31:14.984Z,14.27
2019-01-05T21:33:44.039Z,15.60
2019-01-05T21:36:18.991Z,13.40
2019-01-05T21:38:54.052Z,13.60
2019-01-05T21:41:31.897Z,13.97
2019-01-05T21:44:09.695Z,16.70
2019-01-05T21:46:56.762Z,16.37
2019-01-05T21:49:31.421Z,14.40
2019-01-05T21:52:18.293Z,15.33
2019-01-05T21:54:53.171Z,16.07
2019-01-05T21:57:22.279Z,24.83
2019-01-05T22:00:00.157Z,22.60
2019-01-05T22:02:35.239Z,22.13
2019-01-05T22:05:19.211Z,15.00
2019-01-05T22:08:03.518Z,18.83
2019-01-05T22:10:45.197Z,30.53
2019-01-05T22:13:23.073Z,29.87
2019-01-05T22:16:10.531Z,16.97
2019-01-05T22:18:39.567Z,14.63
2019-01-05T22:21:08.609Z,10.90
2019-01-05T22:23:54.634Z,12.57
2019-01-05T22:26:32.849Z,8.00
2019-01-05T22:29:04.472Z,6.90
2019-01-05T22:31:42.234Z,7.13
2019-01-05T22:34:11.567Z,7.77
2019-01-05T22:36:57.108Z,7.27
2019-01-05T22:39:26.208Z,9.03
2019-01-05T22:42:04.113Z,8.07
2019-01-05T22:44:36.905Z,7.70
2019-01-05T22:47:17.777Z,7.93
2019-01-05T22:49:46.857Z,7.20
2019-01-05T22:52:32.791Z,10.10
2019-01-05T22:55:18.085Z,7.67
2019-01-05T22:58:05.028Z,11.93
2019-01-05T23:00:49.313Z,9.80
2019-01-05T23:03:18.333Z,7.77
2019-01-05T23:05:48.268Z,8.97
2019-01-05T23:08:33.541Z,13.33
2019-01-05T23:11:02.558Z,14.57
2019-01-05T23:13:37.812Z,12.97
2019-01-05T23:16:15.981Z,11.90
2019-01-05T23:18:59.753Z,16.60
2019-01-05T23:21:34.371Z,18.43
2019-01-05T23:24:19.921Z,16.13
2019-01-05T23:26:48.937Z,14.50
2019-01-05T23:29:18.112Z,19.87
2019-01-05T23:31:47.126Z,24.27
2019-01-05T23:34:16.848Z,18.10
2019-01-05T23:37:04.571Z,15.17
2019-01-05T23:39:50.049Z,17.80
2019-01-05T23:42:35.578Z,17.17
2019-01-05T23:45:13.430Z,13.70
2019-01-05T23:47:44.298Z,12.70
2019-01-05T23:50:29.540Z,10.37
2019-01-05T23:53:04.220Z,10.77
2019-01-05T23:55:42.323Z,13.37
2019-01-05T23:58:18.287Z,11.73
